createdAt,value
2018-04-27T00:00:19.402Z,4.80
2018-04-27T00:02:47.065Z,4.80
2018-04-27T00:05:14.697Z,4.90
2018-04-27T00:07:42.359Z,4.90
2018-04-27T00:10:09.978Z,4.90
2018-04-27T00:12:37.581Z,4.90
2018-04-27T00:15:05.206Z,4.80
2018-04-27T00:17:32.810Z,4.80
2018-04-27T00:20:00.440Z,4.80
2018-04-27T00:22:28.104Z,4.70
2018-04-27T00:24:55.733Z,4.70
2018-04-27T00:27:24.102Z,4.60
2018-04-27T00:29:52.503Z,4.50
2018-04-27T00:32:20.079Z,4.40
2018-04-27T00:34:47.704Z,4.30
2018-04-27T00:37:16.097Z,4.10
2018-04-27T00:39:43.661Z,4.00
2018-04-27T00:42:11.254Z,4.00
2018-04-27T00:44:38.884Z,3.80
2018-04-27T00:47:06.466Z,3.90
2018-04-27T00:49:34.092Z,4.00
2018-04-27T00:52:01.722Z,4.00
2018-04-27T00:54:29.316Z,4.10
2018-04-27T00:56:56.954Z,4.20
2018-04-27T00:59:24.561Z,4.30
2018-04-27T01:01:52.205Z,4.30
2018-04-27T01:04:19.811Z,4.30
2018-04-27T01:06:47.473Z,4.40
2018-04-27T01:09:15.070Z,4.30
2018-04-27T01:11:43.455Z,4.20
2018-04-27T01:14:11.810Z,4.20
2018-04-27T01:16:39.425Z,4.10
2018-04-27T01:19:07.808Z,4.20
2018-04-27T01:21:35.415Z,4.20
2018-04-27T01:24:03.044Z,4.30
2018-04-27T01:26:30.653Z,4.40
2018-04-27T01:28:58.273Z,4.50
2018-04-27T01:31:25.915Z,4.50
2018-04-27T01:33:53.550Z,4.50
2018-04-27T01:36:21.140Z,4.50
2018-04-27T01:38:48.789Z,4.40
2018-04-27T01:41:16.416Z,4.30
2018-04-27T01:43:44.791Z,4.30
2018-04-27T01:46:13.178Z,4.30
2018-04-27T01:48:40.815Z,4.30
2018-04-27T01:51:08.410Z,4.40
2018-04-27T01:53:36.036Z,4.30
2018-04-27T01:56:03.719Z,4.30
2018-04-27T01:58:31.367Z,4.20
2018-04-27T02:00:59.764Z,4.10
2018-04-27T02:03:27.362Z,4.10
2018-04-27T02:05:54.999Z,4.00
2018-04-27T02:08:22.637Z,4.00
2018-04-27T02:10:50.233Z,4.00
2018-04-27T02:13:17.839Z,4.00
2018-04-27T02:15:45.402Z,3.90
2018-04-27T02:18:13.061Z,3.80
2018-04-27T02:20:40.674Z,3.70
2018-04-27T02:23:08.227Z,3.60
2018-04-27T02:25:35.832Z,3.60
2018-04-27T02:28:03.393Z,3.50
2018-04-27T02:30:31.064Z,3.60
2018-04-27T02:32:58.606Z,3.70
2018-04-27T02:35:26.249Z,3.70
2018-04-27T02:37:53.873Z,3.60
2018-04-27T02:40:22.205Z,3.60
2018-04-27T02:42:49.817Z,3.70
2018-04-27T02:45:17.400Z,3.50
2018-04-27T02:47:44.985Z,3.40
2018-04-27T02:50:12.605Z,3.30
2018-04-27T02:52:40.222Z,3.30
2018-04-27T02:55:07.782Z,3.20
2018-04-27T02:57:35.379Z,3.20
2018-04-27T03:00:02.948Z,3.30
2018-04-27T03:02:30.527Z,3.40
2018-04-27T03:04:58.159Z,3.30
2018-04-27T03:07:25.766Z,3.20
2018-04-27T03:09:53.378Z,3.10
2018-04-27T03:12:20.978Z,3.10
2018-04-27T03:14:48.521Z,3.30
2018-04-27T03:17:16.115Z,3.20
2018-04-27T03:19:43.715Z,3.30
2018-04-27T03:22:11.378Z,3.20
2018-04-27T03:24:38.944Z,3.30
2018-04-27T03:27:06.566Z,3.20
2018-04-27T03:29:34.153Z,3.20
2018-04-27T03:32:01.851Z,3.20
2018-04-27T03:34:29.481Z,3.20
2018-04-27T03:36:57.060Z,3.20
2018-04-27T03:39:24.649Z,3.20
2018-04-27T03:41:52.256Z,3.10
2018-04-27T03:44:20.618Z,3.00
2018-04-27T03:46:48.257Z,3.00
2018-04-27T03:49:15.907Z,3.10
2018-04-27T03:51:43.494Z,3.10
2018-04-27T03:54:11.105Z,3.10
2018-04-27T03:56:38.740Z,3.00
2018-04-27T03:59:06.344Z,3.00
2018-04-27T04:01:45.736Z,3.00
2018-04-27T04:04:25.177Z,3.00
2018-04-27T04:06:53.591Z,2.80
2018-04-27T04:09:21.183Z,2.90
2018-04-27T04:11:48.817Z,2.80
2018-04-27T04:14:16.409Z,2.90
2018-04-27T04:16:44.091Z,2.90
2018-04-27T04:19:12.420Z,2.90
2018-04-27T04:21:40.989Z,2.80
2018-04-27T04:24:08.589Z,3.00
2018-04-27T04:26:36.144Z,3.00
2018-04-27T04:29:03.768Z,3.00
2018-04-27T04:31:31.369Z,3.20
2018-04-27T04:33:58.931Z,3.30
2018-04-27T04:36:26.533Z,3.30
2018-04-27T04:38:54.105Z,3.50
2018-04-27T04:41:21.755Z,3.60
2018-04-27T04:43:49.319Z,3.70
2018-04-27T04:46:16.921Z,3.80
2018-04-27T04:48:44.524Z,3.90
2018-04-27T04:51:12.117Z,4.00
2018-04-27T04:53:39.738Z,4.10
2018-04-27T04:56:08.085Z,4.00
2018-04-27T04:58:35.698Z,4.00
2018-04-27T05:01:03.378Z,4.00
2018-04-27T05:03:30.966Z,4.10
2018-04-27T05:05:58.558Z,4.10
2018-04-27T05:08:26.938Z,4.10
2018-04-27T05:10:54.596Z,4.10
2018-04-27T05:13:22.194Z,4.10
2018-04-27T05:15:49.816Z,4.10
2018-04-27T05:21:19.677Z,4.20
2018-04-27T05:23:47.212Z,4.30
2018-04-27T05:26:15.553Z,4.30
2018-04-27T05:28:43.198Z,4.30
2018-04-27T05:31:22.649Z,4.30
2018-04-27T05:33:50.224Z,4.50
2018-04-27T05:36:21.450Z,4.70
2018-04-27T05:38:49.041Z,4.70
2018-04-27T05:41:17.408Z,5.10
2018-04-27T05:43:45.841Z,5.30
2018-04-27T05:46:13.426Z,5.30
2018-04-27T05:48:41.009Z,5.50
2018-04-27T05:51:09.377Z,5.70
2018-04-27T05:53:36.989Z,5.70
2018-04-27T05:56:04.558Z,5.80
2018-04-27T05:58:32.164Z,6.10
2018-04-27T06:01:00.559Z,6.30
2018-04-27T06:03:40.808Z,6.40
2018-04-27T06:06:09.185Z,6.60
2018-04-27T06:08:37.821Z,6.60
2018-04-27T06:11:05.409Z,6.60
2018-04-27T06:13:32.995Z,6.70
2018-04-27T06:16:01.341Z,6.90
2018-04-27T06:18:28.986Z,6.80
2018-04-27T06:20:56.598Z,7.10
2018-04-27T06:23:24.989Z,7.40
2018-04-27T06:25:52.566Z,7.40
2018-04-27T06:28:20.950Z,7.50
2018-04-27T06:30:48.544Z,7.50
2018-04-27T06:33:16.152Z,7.60
2018-04-27T06:35:43.700Z,7.60
2018-04-27T06:38:11.297Z,7.70
2018-04-27T06:40:38.929Z,7.80
2018-04-27T06:43:06.527Z,8.00
2018-04-27T06:45:34.150Z,8.20
2018-04-27T06:48:01.718Z,8.40
2018-04-27T06:50:29.340Z,8.50
2018-04-27T06:52:56.958Z,8.60
2018-04-27T06:55:24.614Z,8.60
2018-04-27T06:57:52.222Z,8.70
2018-04-27T07:00:19.829Z,8.90
2018-04-27T07:02:47.441Z,9.00
2018-04-27T07:05:15.062Z,9.20
2018-04-27T07:08:03.596Z,9.70
2018-04-27T07:10:31.189Z,9.60
2018-04-27T07:12:58.775Z,9.90
2018-04-27T07:15:26.389Z,10.10
2018-04-27T07:17:54.001Z,10.10
2018-04-27T07:20:22.361Z,10.40
2018-04-27T07:22:49.979Z,10.40
2018-04-27T07:25:17.618Z,10.50
2018-04-27T07:27:45.995Z,11.40
2018-04-27T07:30:13.573Z,11.40
2018-04-27T07:32:41.198Z,11.70
2018-04-27T07:35:09.565Z,11.90
2018-04-27T07:37:37.178Z,11.90
2018-04-27T07:40:04.811Z,12.00
2018-04-27T07:42:33.158Z,12.70
2018-04-27T07:45:00.760Z,12.70
2018-04-27T07:47:28.338Z,12.90
2018-04-27T07:49:56.030Z,13.20
2018-04-27T07:52:23.648Z,13.30
2018-04-27T07:54:51.254Z,13.70
2018-04-27T07:57:18.839Z,14.40
2018-04-27T07:59:46.413Z,14.90
2018-04-27T08:02:14.864Z,17.50
2018-04-27T08:04:42.369Z,17.50
2018-04-27T08:07:10.011Z,18.70
2018-04-27T08:09:37.620Z,19.80
2018-04-27T08:12:05.255Z,20.60
2018-04-27T08:14:32.838Z,20.90
2018-04-27T08:17:00.494Z,20.90
2018-04-27T08:19:28.072Z,20.70
2018-04-27T08:21:55.737Z,21.10
2018-04-27T08:24:23.317Z,22.20
2018-04-27T08:26:50.902Z,23.50
2018-04-27T08:29:19.293Z,25.10
2018-04-27T08:31:46.886Z,25.00
2018-04-27T08:34:14.465Z,26.60
2018-04-27T08:36:42.029Z,27.20
2018-04-27T08:39:09.643Z,27.20
2018-04-27T08:41:37.349Z,27.10
2018-04-27T08:44:05.642Z,28.60
2018-04-27T08:46:33.230Z,28.60
2018-04-27T08:49:00.840Z,29.00
2018-04-27T08:51:28.436Z,29.50
2018-04-27T08:53:56.798Z,28.70
2018-04-27T08:56:24.423Z,28.70
2018-04-27T08:58:52.006Z,29.20
2018-04-27T09:01:19.614Z,29.60
2018-04-27T09:03:47.223Z,30.10
2018-04-27T09:06:14.861Z,30.30
2018-04-27T09:08:42.467Z,30.20
2018-04-27T09:11:10.009Z,30.10
2018-04-27T09:13:37.579Z,30.00
2018-04-27T09:16:05.129Z,30.10
2018-04-27T09:18:32.752Z,30.20
2018-04-27T09:21:00.332Z,31.00
2018-04-27T09:23:27.900Z,31.20
2018-04-27T09:25:55.475Z,31.30
2018-04-27T09:28:23.073Z,30.90
2018-04-27T09:30:50.654Z,30.30
2018-04-27T09:33:18.198Z,30.20
2018-04-27T09:35:45.762Z,29.60
2018-04-27T09:38:14.190Z,30.00
2018-04-27T09:40:41.834Z,30.00
2018-04-27T09:43:09.398Z,30.30
2018-04-27T09:45:37.020Z,31.80
2018-04-27T09:48:04.583Z,31.50
2018-04-27T09:50:32.230Z,31.90
2018-04-27T09:52:59.798Z,31.80
2018-04-27T09:55:27.370Z,31.60
2018-04-27T09:57:54.986Z,31.90
2018-04-27T10:00:22.582Z,31.90
2018-04-27T10:02:50.177Z,30.40
2018-04-27T10:05:17.738Z,30.00
2018-04-27T10:07:45.381Z,30.00
2018-04-27T10:10:12.931Z,29.90
2018-04-27T10:12:45.050Z,30.00
2018-04-27T10:15:12.628Z,30.70
2018-04-27T10:17:40.960Z,31.90
2018-04-27T10:20:08.581Z,31.90
2018-04-27T10:22:36.167Z,31.90
2018-04-27T10:25:03.749Z,31.30
2018-04-27T10:27:31.333Z,31.50
2018-04-27T10:29:58.948Z,31.20
2018-04-27T10:32:26.568Z,30.80
2018-04-27T10:34:54.186Z,31.30
2018-04-27T10:37:21.786Z,31.20
2018-04-27T10:39:50.209Z,30.00
2018-04-27T10:42:17.810Z,30.00
2018-04-27T10:44:46.130Z,31.50
2018-04-27T10:47:13.736Z,31.50
2018-04-27T10:49:41.326Z,32.00
2018-04-27T10:52:08.934Z,32.00
2018-04-27T10:54:36.535Z,32.30
2018-04-27T10:57:04.860Z,31.90
2018-04-27T10:59:32.495Z,31.80
2018-04-27T11:02:00.130Z,32.00
2018-04-27T11:04:27.701Z,32.50
2018-04-27T11:06:56.022Z,33.00
2018-04-27T11:09:23.610Z,32.90
2018-04-27T11:11:51.178Z,33.00
2018-04-27T11:14:18.807Z,32.60
2018-04-27T11:16:46.438Z,32.00
2018-04-27T11:19:13.979Z,32.00
2018-04-27T11:21:42.361Z,32.80
2018-04-27T11:24:10.717Z,32.20
2018-04-27T11:26:38.302Z,32.10
2018-04-27T11:29:05.931Z,31.30
2018-04-27T11:31:33.522Z,31.30
2018-04-27T11:34:01.122Z,32.30
2018-04-27T11:36:28.695Z,32.70
2018-04-27T11:38:56.317Z,32.70
2018-04-27T11:41:23.939Z,32.60
2018-04-27T11:43:51.537Z,32.10
2018-04-27T11:46:19.158Z,32.00
2018-04-27T11:48:46.727Z,31.20
2018-04-27T11:51:15.103Z,30.10
2018-04-27T11:53:42.695Z,30.10
2018-04-27T11:56:10.302Z,30.00
2018-04-27T11:58:37.919Z,29.80
2018-04-27T12:01:05.509Z,30.30
2018-04-27T12:03:33.154Z,28.60
2018-04-27T12:06:00.740Z,29.50
2018-04-27T12:08:28.398Z,30.30
2018-04-27T12:10:56.057Z,31.20
2018-04-27T12:13:23.695Z,32.10
2018-04-27T12:16:16.607Z,32.00
2018-04-27T12:18:45.006Z,31.20
2018-04-27T12:21:12.558Z,31.10
2018-04-27T12:23:40.984Z,32.00
2018-04-27T12:26:08.573Z,31.90
2018-04-27T12:28:36.178Z,31.10
2018-04-27T12:31:04.603Z,30.00
2018-04-27T12:33:32.205Z,30.00
2018-04-27T12:35:59.845Z,28.80
2018-04-27T12:38:28.166Z,29.50
2018-04-27T12:40:56.562Z,29.50
2018-04-27T12:43:24.571Z,30.00
2018-04-27T12:45:52.945Z,29.30
2018-04-27T12:48:21.310Z,29.90
2018-04-27T12:50:48.894Z,29.90
2018-04-27T12:53:17.314Z,30.00
2018-04-27T12:55:44.985Z,30.00
2018-04-27T12:58:12.533Z,29.10
2018-04-27T13:00:40.131Z,30.00
2018-04-27T13:03:07.693Z,30.20
2018-04-27T13:05:35.293Z,29.90
2018-04-27T13:08:03.006Z,30.00
2018-04-27T13:10:50.913Z,30.40
2018-04-27T13:13:18.455Z,30.30
2018-04-27T13:15:46.057Z,31.10
2018-04-27T13:18:13.621Z,30.70
2018-04-27T13:21:04.643Z,31.10
2018-04-27T13:23:32.190Z,31.20
2018-04-27T13:25:59.749Z,30.80
2018-04-27T13:28:27.298Z,31.60
2018-04-27T13:30:54.934Z,31.20
2018-04-27T13:33:22.477Z,30.00
2018-04-27T13:35:50.057Z,29.80
2018-04-27T13:38:17.631Z,30.20
2018-04-27T13:40:45.192Z,29.50
2018-04-27T13:43:12.754Z,30.00
2018-04-27T13:45:40.306Z,29.60
2018-04-27T13:48:07.893Z,29.60
2018-04-27T13:50:35.452Z,30.20
2018-04-27T13:53:03.056Z,30.40
2018-04-27T13:55:30.627Z,30.20
2018-04-27T13:57:58.264Z,29.80
2018-04-27T14:00:26.636Z,27.60
2018-04-27T14:02:55.072Z,27.80
2018-04-27T14:05:22.567Z,27.80
2018-04-27T14:07:50.895Z,28.60
2018-04-27T14:10:18.509Z,28.60
2018-04-27T14:12:46.863Z,29.20
2018-04-27T14:15:14.456Z,29.20
2018-04-27T14:17:42.861Z,29.50
2018-04-27T14:20:10.467Z,29.50
2018-04-27T14:22:38.025Z,29.40
2018-04-27T14:25:05.585Z,29.40
2018-04-27T14:27:33.186Z,29.50
2018-04-27T14:30:00.751Z,30.00
2018-04-27T14:32:43.305Z,30.10
2018-04-27T14:35:10.896Z,29.00
2018-04-27T14:37:38.528Z,28.90
2018-04-27T14:40:06.135Z,28.60
2018-04-27T14:42:33.763Z,27.80
2018-04-27T14:45:01.361Z,27.80
2018-04-27T14:47:29.876Z,28.20
2018-04-27T14:49:57.473Z,28.00
2018-04-27T14:52:25.107Z,28.00
2018-04-27T14:54:52.659Z,27.50
2018-04-27T14:57:20.241Z,27.20
2018-04-27T14:59:47.827Z,27.40
2018-04-27T15:02:16.182Z,27.20
2018-04-27T15:04:43.741Z,27.20
2018-04-27T15:07:11.374Z,27.00
2018-04-27T15:09:38.995Z,27.60
2018-04-27T15:12:07.402Z,28.50
2018-04-27T15:14:34.980Z,28.50
2018-04-27T15:17:02.536Z,28.80
2018-04-27T15:19:30.121Z,28.30
2018-04-27T15:21:57.736Z,27.40
2018-04-27T15:24:25.340Z,27.00
2018-04-27T15:26:52.912Z,27.30
2018-04-27T15:29:21.296Z,27.80
2018-04-27T15:31:48.946Z,27.80
2018-04-27T15:34:16.549Z,28.10
2018-04-27T15:36:44.107Z,28.00
2018-04-27T15:39:11.741Z,27.70
2018-04-27T15:41:39.357Z,27.50
2018-04-27T15:44:06.893Z,27.30
2018-04-27T15:46:34.468Z,27.30
2018-04-27T15:49:02.071Z,27.50
2018-04-27T15:51:29.695Z,27.60
2018-04-27T15:53:57.299Z,27.50
2018-04-27T15:56:25.700Z,27.80
2018-04-27T15:58:53.727Z,27.80
2018-04-27T16:01:21.443Z,28.10
2018-04-27T16:03:49.047Z,28.00
2018-04-27T16:06:19.899Z,27.90
2018-04-27T16:08:47.470Z,28.30
2018-04-27T16:11:15.048Z,28.60
2018-04-27T16:14:00.121Z,28.00
2018-04-27T16:16:36.979Z,27.60
2018-04-27T16:19:04.541Z,27.50
2018-04-27T16:21:32.123Z,27.00
2018-04-27T16:23:59.717Z,26.40
2018-04-27T16:26:28.937Z,26.00
2018-04-27T16:28:56.540Z,25.50
2018-04-27T16:31:24.111Z,25.50
2018-04-27T16:33:51.759Z,25.10
2018-04-27T16:36:19.372Z,25.30
2018-04-27T16:38:46.961Z,25.30
2018-04-27T16:41:15.313Z,25.60
2018-04-27T16:43:42.920Z,25.50
2018-04-27T16:46:10.542Z,25.50
2018-04-27T16:48:38.141Z,24.90
2018-04-27T16:51:05.728Z,24.30
2018-04-27T16:53:34.082Z,24.00
2018-04-27T16:56:15.952Z,24.00
2018-04-27T16:58:43.581Z,23.80
2018-04-27T17:01:11.130Z,23.50
2018-04-27T17:03:38.824Z,23.30
2018-04-27T17:06:06.342Z,22.90
2018-04-27T17:08:33.982Z,22.70
2018-04-27T17:11:01.621Z,22.50
2018-04-27T17:13:30.037Z,22.40
2018-04-27T17:15:58.374Z,22.20
2018-04-27T17:18:26.738Z,22.10
2018-04-27T17:20:54.363Z,22.00
2018-04-27T17:23:21.922Z,21.80
2018-04-27T17:25:49.549Z,21.70
2018-04-27T17:28:17.233Z,21.60
2018-04-27T17:30:45.567Z,21.30
2018-04-27T17:33:13.172Z,21.30
2018-04-27T17:35:40.756Z,21.10
2018-04-27T17:38:08.443Z,21.00
2018-04-27T17:40:36.016Z,20.80
2018-04-27T17:43:04.406Z,20.50
2018-04-27T17:45:32.782Z,20.30
2018-04-27T17:48:01.181Z,20.30
2018-04-27T17:50:28.678Z,20.20
2018-04-27T17:52:56.249Z,20.10
2018-04-27T17:55:23.818Z,20.00
2018-04-27T17:57:51.382Z,19.80
2018-04-27T18:00:19.780Z,19.60
2018-04-27T18:02:47.372Z,19.60
2018-04-27T18:05:14.949Z,19.40
2018-04-27T18:08:01.864Z,19.30
2018-04-27T18:10:29.433Z,19.20
2018-04-27T18:16:01.050Z,18.60
2018-04-27T18:27:08.363Z,18.10
2018-04-27T18:29:35.959Z,18.00
2018-04-27T18:37:52.072Z,17.70
2018-04-27T18:40:20.581Z,17.60
2018-04-27T18:42:54.019Z,17.60
2018-04-27T18:45:40.504Z,17.70
2018-04-27T18:48:08.072Z,17.70
2018-04-27T18:50:35.666Z,17.60
2018-04-27T18:53:04.044Z,17.70
2018-04-27T18:55:35.661Z,17.70
2018-04-27T18:58:03.241Z,17.80
2018-04-27T19:00:32.650Z,17.70
2018-04-27T19:03:00.280Z,17.70
2018-04-27T19:05:27.928Z,17.60
2018-04-27T19:07:56.287Z,17.40
2018-04-27T19:10:23.882Z,17.30
2018-04-27T19:15:46.662Z,16.90
2018-04-27T19:18:19.250Z,16.70
2018-04-27T19:20:46.892Z,16.60
2018-04-27T19:23:14.481Z,16.50
2018-04-27T19:25:48.602Z,16.70
2018-04-27T19:28:17.746Z,16.80
2018-04-27T19:36:44.063Z,16.90
2018-04-27T19:39:11.655Z,17.10
2018-04-27T19:41:39.280Z,17.10
2018-04-27T19:44:06.832Z,17.00
2018-04-27T19:46:34.402Z,17.00
2018-04-27T19:49:01.960Z,17.00
2018-04-27T19:51:30.324Z,17.20
2018-04-27T19:53:57.909Z,17.20
2018-04-27T19:56:26.303Z,17.10
2018-04-27T19:58:53.906Z,17.10
2018-04-27T20:01:21.508Z,17.00
2018-04-27T20:03:49.913Z,16.90
2018-04-27T20:06:17.480Z,16.90
2018-04-27T20:08:45.080Z,16.80
2018-04-27T20:11:16.088Z,16.90
2018-04-27T20:13:43.721Z,16.90
2018-04-27T20:16:12.998Z,16.90
2018-04-27T20:18:40.556Z,16.80
2018-04-27T20:21:08.138Z,16.70
2018-04-27T20:23:35.854Z,16.60
2018-04-27T20:26:04.877Z,16.40
2018-04-27T20:31:33.627Z,16.10
2018-04-27T20:34:01.222Z,16.10
2018-04-27T20:36:28.807Z,16.10
2018-04-27T20:38:57.207Z,15.80
2018-04-27T20:41:24.849Z,15.80
2018-04-27T20:43:54.144Z,15.80
2018-04-27T20:46:21.717Z,15.80
2018-04-27T20:48:51.691Z,15.90
2018-04-27T20:51:20.165Z,15.90
2018-04-27T20:53:50.691Z,15.90
2018-04-27T20:56:18.303Z,15.90
2018-04-27T20:58:46.671Z,15.80
2018-04-27T21:01:15.026Z,15.70
2018-04-27T21:03:42.617Z,15.70
2018-04-27T21:06:10.981Z,15.60
2018-04-27T21:08:38.537Z,15.60
2018-04-27T21:11:06.154Z,15.50
2018-04-27T21:13:33.777Z,15.50
2018-04-27T21:16:02.119Z,15.40
2018-04-27T21:18:29.772Z,15.40
2018-04-27T21:20:57.319Z,15.40
2018-04-27T21:23:24.926Z,15.30
2018-04-27T21:25:53.253Z,15.20
2018-04-27T21:28:25.213Z,15.20
2018-04-27T21:30:54.243Z,15.20
2018-04-27T21:33:34.674Z,15.00
2018-04-27T21:36:03.051Z,15.00
2018-04-27T21:38:41.305Z,14.80
2018-04-27T21:44:13.987Z,14.70
2018-04-27T21:46:41.581Z,14.60
2018-04-27T21:49:10.634Z,14.70
2018-04-27T21:51:39.110Z,14.70
2018-04-27T21:54:10.377Z,14.80
2018-04-27T21:56:37.955Z,14.70
2018-04-27T21:59:05.534Z,14.70
2018-04-27T22:01:33.118Z,14.70
2018-04-27T22:04:26.302Z,14.60
2018-04-27T22:06:53.900Z,14.60
2018-04-27T22:09:22.285Z,14.20
2018-04-27T22:11:49.875Z,14.20
2018-04-27T22:14:23.424Z,14.10
2018-04-27T22:19:51.607Z,13.80
2018-04-27T22:22:19.169Z,13.70
2018-04-27T22:24:49.635Z,13.60
2018-04-27T22:27:17.151Z,13.50
2018-04-27T22:29:47.481Z,13.40
2018-04-27T22:32:20.840Z,13.30
2018-04-27T22:34:51.174Z,13.10
2018-04-27T22:37:19.490Z,13.00
2018-04-27T22:42:53.000Z,12.90
2018-04-27T22:45:22.333Z,12.90
2018-04-27T22:48:11.424Z,12.80
2018-04-27T22:53:48.260Z,12.70
2018-04-27T22:56:19.370Z,12.80
2018-04-27T22:58:46.902Z,12.80
2018-04-27T23:01:14.419Z,12.90
2018-04-27T23:03:41.933Z,13.10
2018-04-27T23:06:10.264Z,13.40
2018-04-27T23:08:40.752Z,13.50
2018-04-27T23:11:10.131Z,13.80
2018-04-27T23:14:02.242Z,13.80
2018-04-27T23:16:30.541Z,13.90
2018-04-27T23:18:58.052Z,13.90
2018-04-27T23:21:37.161Z,14.00
2018-04-27T23:24:06.241Z,14.10
2018-04-27T23:26:33.764Z,14.20
2018-04-27T23:29:02.070Z,14.20
2018-04-27T23:31:29.595Z,14.20
2018-04-27T23:33:58.003Z,14.20
2018-04-27T23:36:25.691Z,14.20
2018-04-27T23:38:53.269Z,14.30
2018-04-27T23:41:20.837Z,14.30
2018-04-27T23:43:49.186Z,14.10
2018-04-27T23:46:16.749Z,14.10
2018-04-27T23:48:44.393Z,14.10
2018-04-27T23:51:12.749Z,14.00
2018-04-27T23:53:40.381Z,13.90
2018-04-27T23:56:08.708Z,13.90
2018-04-27T23:58:36.260Z,13.90
